createdAt,value
2022-11-27T00:01:32.715Z,13.65
2022-11-27T00:04:01.025Z,13.75
2022-11-27T00:06:31.364Z,12.95
2022-11-27T00:09:00.212Z,12.37
2022-11-27T00:11:30.158Z,10.75
2022-11-27T00:13:58.667Z,9.48
2022-11-27T00:16:27.988Z,7.28
2022-11-27T00:18:56.095Z,7.32
2022-11-27T00:21:26.255Z,7.67
2022-11-27T00:23:57.321Z,8.77
2022-11-27T00:26:25.638Z,11.00
2022-11-27T00:28:56.391Z,11.88
2022-11-27T00:31:28.449Z,12.48
2022-11-27T00:33:57.078Z,12.20
2022-11-27T00:36:25.638Z,12.43
2022-11-27T00:38:55.274Z,11.88
2022-11-27T00:41:24.806Z,11.50
2022-11-27T00:43:53.765Z,11.00
2022-11-27T00:46:28.049Z,10.37
2022-11-27T00:48:57.315Z,11.13
2022-11-27T00:51:26.368Z,12.15
2022-11-27T00:53:56.105Z,11.57
2022-11-27T00:56:25.749Z,10.45
2022-11-27T00:58:54.186Z,10.57
2022-11-27T01:01:23.994Z,11.43
2022-11-27T01:03:52.360Z,10.63
2022-11-27T01:06:22.813Z,11.43
2022-11-27T01:08:50.748Z,10.68
2022-11-27T01:11:22.271Z,11.67
2022-11-27T01:13:50.210Z,12.27
2022-11-27T01:16:21.709Z,11.55
2022-11-27T01:18:50.599Z,12.30
2022-11-27T01:21:20.643Z,12.43
2022-11-27T01:23:49.923Z,10.30
2022-11-27T01:26:20.458Z,11.13
2022-11-27T01:28:48.830Z,11.80
2022-11-27T01:31:18.830Z,11.10
2022-11-27T01:33:47.459Z,10.20
2022-11-27T01:36:16.652Z,9.23
2022-11-27T01:38:44.612Z,9.45
2022-11-27T01:41:16.080Z,9.63
2022-11-27T01:43:46.716Z,8.70
2022-11-27T01:46:29.537Z,9.73
2022-11-27T01:49:01.099Z,10.50
2022-11-27T01:51:29.396Z,10.30
2022-11-27T01:53:57.555Z,9.07
2022-11-27T01:56:26.322Z,9.50
2022-11-27T01:58:56.744Z,10.18
2022-11-27T02:01:26.130Z,10.60
2022-11-27T02:03:54.376Z,10.55
2022-11-27T02:12:15.624Z,10.30
2022-11-27T02:14:51.154Z,11.68
2022-11-27T02:17:22.985Z,10.97
2022-11-27T02:20:05.770Z,10.73
2022-11-27T02:22:43.236Z,10.52
2022-11-27T02:25:17.326Z,11.13
2022-11-27T02:27:57.262Z,10.80
2022-11-27T02:30:26.769Z,11.23
2022-11-27T02:32:58.525Z,11.48
2022-11-27T02:35:31.421Z,11.10
2022-11-27T02:38:01.565Z,11.05
2022-11-27T02:40:32.536Z,10.95
2022-11-27T02:43:02.412Z,11.67
2022-11-27T02:45:34.905Z,10.85
2022-11-27T02:48:03.707Z,10.85
2022-11-27T02:50:33.235Z,10.32
2022-11-27T02:53:06.268Z,11.70
2022-11-27T02:55:35.407Z,11.70
2022-11-27T02:58:05.217Z,11.70
2022-11-27T03:00:35.189Z,11.45
2022-11-27T03:03:07.481Z,11.35
2022-11-27T03:05:39.017Z,12.05
2022-11-27T03:08:09.005Z,12.13
2022-11-27T03:10:41.510Z,11.85
2022-11-27T03:13:09.546Z,12.43
2022-11-27T03:15:42.344Z,12.38
2022-11-27T03:18:16.350Z,12.50
2022-11-27T03:20:45.297Z,12.47
2022-11-27T03:23:13.191Z,11.43
2022-11-27T03:25:41.940Z,11.75
2022-11-27T03:28:11.550Z,12.50
2022-11-27T03:30:42.388Z,12.68
2022-11-27T03:33:10.326Z,12.60
2022-11-27T03:35:38.661Z,11.73
2022-11-27T03:38:06.777Z,11.57
2022-11-27T03:40:42.284Z,11.75
2022-11-27T03:43:14.964Z,11.75
2022-11-27T03:45:51.238Z,11.30
2022-11-27T03:48:23.992Z,10.48
2022-11-27T03:51:00.460Z,11.13
2022-11-27T03:53:36.347Z,11.02
2022-11-27T03:56:10.217Z,11.35
2022-11-27T03:58:41.234Z,11.27
2022-11-27T04:01:13.010Z,10.63
2022-11-27T04:03:40.911Z,10.70
2022-11-27T04:06:09.154Z,10.93
2022-11-27T04:08:37.026Z,11.52
2022-11-27T04:11:05.443Z,12.50
2022-11-27T04:13:33.352Z,12.07
2022-11-27T04:16:02.060Z,12.20
2022-11-27T04:18:31.698Z,11.70
2022-11-27T04:21:00.176Z,12.85
2022-11-27T04:23:28.140Z,14.23
2022-11-27T04:25:56.293Z,12.20
2022-11-27T04:28:24.255Z,9.82
2022-11-27T04:30:55.236Z,9.85
2022-11-27T04:33:23.613Z,9.65
2022-11-27T04:35:53.523Z,8.83
2022-11-27T04:38:22.023Z,9.00
2022-11-27T04:40:52.247Z,9.38
2022-11-27T04:43:20.557Z,11.07
2022-11-27T04:45:48.713Z,10.82
2022-11-27T04:48:16.615Z,10.33
2022-11-27T04:50:44.843Z,10.50
2022-11-27T04:53:14.168Z,9.85
2022-11-27T04:55:42.322Z,9.95
2022-11-27T04:58:10.229Z,11.20
2022-11-27T05:00:38.502Z,9.93
2022-11-27T05:03:06.593Z,11.15
2022-11-27T05:05:34.965Z,12.77
2022-11-27T05:08:02.900Z,19.15
2022-11-27T05:10:32.441Z,13.23
2022-11-27T05:13:00.430Z,10.40
2022-11-27T05:15:28.578Z,16.50
2022-11-27T05:17:56.580Z,11.10
2022-11-27T05:20:24.850Z,12.63
2022-11-27T05:22:52.784Z,12.90
2022-11-27T05:25:20.901Z,12.47
2022-11-27T05:27:50.185Z,11.00
2022-11-27T05:30:18.653Z,11.05
2022-11-27T05:32:46.540Z,10.05
2022-11-27T05:35:14.781Z,10.93
2022-11-27T05:37:42.735Z,10.70
2022-11-27T05:40:11.512Z,10.25
2022-11-27T05:42:39.473Z,9.63
2022-11-27T05:45:09.852Z,13.00
2022-11-27T05:47:37.778Z,10.82
2022-11-27T05:50:07.047Z,10.13
2022-11-27T05:52:35.000Z,11.40
2022-11-27T05:55:03.168Z,9.95
2022-11-27T05:57:31.745Z,11.05
2022-11-27T05:59:59.965Z,11.00
2022-11-27T06:02:29.684Z,9.93
2022-11-27T06:04:58.053Z,10.02
2022-11-27T06:07:26.175Z,10.55
2022-11-27T06:09:55.468Z,10.93
2022-11-27T06:12:23.354Z,9.88
2022-11-27T06:14:51.542Z,10.53
2022-11-27T06:17:19.468Z,9.50
2022-11-27T06:19:48.911Z,9.95
2022-11-27T06:22:16.877Z,9.43
2022-11-27T06:24:44.976Z,10.35
2022-11-27T06:27:12.827Z,8.97
2022-11-27T06:29:41.073Z,10.73
2022-11-27T06:32:09.033Z,9.75
2022-11-27T06:34:37.298Z,9.90
2022-11-27T06:37:11.782Z,9.90
2022-11-27T06:39:41.301Z,9.93
2022-11-27T06:42:09.514Z,9.45
2022-11-27T06:44:37.907Z,10.10
2022-11-27T06:47:06.028Z,8.30
2022-11-27T06:49:34.203Z,9.10
2022-11-27T06:52:02.179Z,9.33
2022-11-27T06:54:31.745Z,8.95
2022-11-27T06:56:59.618Z,10.55
2022-11-27T06:59:27.854Z,8.82
2022-11-27T07:01:55.808Z,8.82
2022-11-27T07:04:24.157Z,8.87
2022-11-27T07:06:52.092Z,10.50
2022-11-27T07:09:20.257Z,8.75
2022-11-27T07:11:49.484Z,8.80
2022-11-27T07:14:17.656Z,7.97
2022-11-27T07:16:45.785Z,10.93
2022-11-27T07:19:14.637Z,8.73
2022-11-27T07:21:42.671Z,9.20
2022-11-27T07:24:10.787Z,10.73
2022-11-27T07:26:38.662Z,9.68
2022-11-27T07:29:08.211Z,9.33
2022-11-27T07:31:36.155Z,9.20
2022-11-27T07:34:07.018Z,10.07
2022-11-27T07:36:39.881Z,11.07
2022-11-27T07:39:08.046Z,11.85
2022-11-27T07:41:35.936Z,9.83
2022-11-27T07:44:04.288Z,9.18
2022-11-27T07:46:33.616Z,9.27
2022-11-27T07:49:01.977Z,10.35
2022-11-27T07:51:30.039Z,9.73
2022-11-27T07:53:58.370Z,9.50
2022-11-27T07:56:27.319Z,9.35
2022-11-27T07:58:55.440Z,8.98
2022-11-27T08:01:23.418Z,9.18
2022-11-27T08:03:52.942Z,8.50
2022-11-27T08:06:22.503Z,8.77
2022-11-27T08:08:51.300Z,8.98
2022-11-27T08:11:21.375Z,8.75
2022-11-27T08:13:49.961Z,9.40
2022-11-27T08:16:18.232Z,9.52
2022-11-27T08:18:46.592Z,9.70
2022-11-27T08:21:15.883Z,9.63
2022-11-27T08:23:44.153Z,10.40
2022-11-27T08:26:13.147Z,9.23
2022-11-27T08:28:42.058Z,9.52
2022-11-27T08:31:11.972Z,9.20
2022-11-27T08:33:40.129Z,9.88
2022-11-27T08:36:13.647Z,9.80
2022-11-27T08:38:47.393Z,8.73
2022-11-27T08:41:15.357Z,8.77
2022-11-27T08:43:43.500Z,9.20
2022-11-27T08:46:12.208Z,9.27
2022-11-27T08:48:41.748Z,9.07
2022-11-27T08:51:11.642Z,10.30
2022-11-27T08:53:40.018Z,10.20
2022-11-27T08:56:11.428Z,10.57
2022-11-27T08:58:40.916Z,10.43
2022-11-27T09:01:10.759Z,10.30
2022-11-27T09:03:39.270Z,11.10
2022-11-27T09:06:08.814Z,9.88
2022-11-27T09:08:37.218Z,11.33
2022-11-27T09:11:05.640Z,9.98
2022-11-27T09:13:36.922Z,9.77
2022-11-27T09:16:05.405Z,10.60
2022-11-27T09:18:34.276Z,9.68
2022-11-27T09:21:03.602Z,9.83
2022-11-27T09:23:31.809Z,10.50
2022-11-27T09:25:59.928Z,10.80
2022-11-27T09:28:31.674Z,12.15
2022-11-27T09:31:02.991Z,13.57
2022-11-27T09:33:33.069Z,11.10
2022-11-27T09:36:05.698Z,11.13
2022-11-27T09:38:34.004Z,10.43
2022-11-27T09:41:05.423Z,11.00
2022-11-27T09:43:36.833Z,19.08
2022-11-27T09:46:12.216Z,12.53
2022-11-27T09:48:42.372Z,10.73
2022-11-27T09:51:13.462Z,11.60
2022-11-27T09:53:46.526Z,11.95
2022-11-27T09:56:17.588Z,11.02
2022-11-27T09:58:48.709Z,11.23
2022-11-27T10:01:34.907Z,11.38
2022-11-27T10:04:10.406Z,11.52
2022-11-27T10:06:44.450Z,11.40
2022-11-27T10:09:19.129Z,12.15
2022-11-27T10:11:52.745Z,10.73
2022-11-27T10:14:35.009Z,11.38
2022-11-27T10:17:09.542Z,13.15
2022-11-27T10:19:45.263Z,14.65
2022-11-27T10:22:21.094Z,15.18
2022-11-27T10:24:59.397Z,15.87
2022-11-27T10:27:32.081Z,15.68
2022-11-27T10:30:01.096Z,15.25
2022-11-27T10:35:21.583Z,14.73
2022-11-27T10:37:53.762Z,16.63
2022-11-27T10:40:24.334Z,16.40
2022-11-27T10:42:56.341Z,15.82
2022-11-27T10:45:27.250Z,15.85
2022-11-27T10:47:56.556Z,15.63
2022-11-27T10:50:24.730Z,14.20
2022-11-27T10:52:55.194Z,14.60
2022-11-27T10:55:29.897Z,16.10
2022-11-27T10:58:07.427Z,14.18
2022-11-27T11:00:35.640Z,13.85
2022-11-27T11:03:07.158Z,13.30
2022-11-27T11:06:18.828Z,14.02
2022-11-27T11:08:26.235Z,14.52
2022-11-27T11:10:55.696Z,14.30
2022-11-27T11:13:27.133Z,14.73
2022-11-27T11:15:58.953Z,14.43
2022-11-27T11:18:30.145Z,15.45
2022-11-27T11:21:00.133Z,14.30
2022-11-27T11:23:31.611Z,14.85
2022-11-27T11:26:03.758Z,14.52
2022-11-27T11:28:37.963Z,14.40
2022-11-27T11:31:10.932Z,13.13
2022-11-27T11:33:48.081Z,12.75
2022-11-27T11:36:16.476Z,12.07
2022-11-27T11:38:46.959Z,11.77
2022-11-27T11:41:18.947Z,12.23
2022-11-27T11:43:58.831Z,12.00
2022-11-27T11:46:29.852Z,13.95
2022-11-27T11:49:02.161Z,12.88
2022-11-27T11:51:44.120Z,13.95
2022-11-27T11:54:22.505Z,13.77
2022-11-27T11:56:52.423Z,13.15
2022-11-27T11:59:26.045Z,13.68
2022-11-27T12:02:14.199Z,13.70
2022-11-27T12:05:06.134Z,12.88
2022-11-27T12:07:51.780Z,12.33
2022-11-27T12:10:23.672Z,12.68
2022-11-27T12:13:00.405Z,12.43
2022-11-27T12:15:31.900Z,12.73
2022-11-27T12:18:02.735Z,10.63
2022-11-27T12:20:42.420Z,11.30
2022-11-27T12:23:35.035Z,11.02
2022-11-27T12:26:12.658Z,10.93
2022-11-27T12:29:08.393Z,11.65
2022-11-27T12:31:47.771Z,10.88
2022-11-27T12:34:22.704Z,11.30
2022-11-27T12:37:08.839Z,11.13
2022-11-27T12:39:52.946Z,9.90
2022-11-27T12:42:24.591Z,8.93
2022-11-27T12:44:57.078Z,10.10
2022-11-27T12:47:28.296Z,9.93
2022-11-27T12:50:00.468Z,9.88
2022-11-27T12:52:32.990Z,9.70
2022-11-27T12:55:04.713Z,10.07
2022-11-27T12:57:37.944Z,12.82
2022-11-27T13:00:08.091Z,13.33
2022-11-27T13:02:38.491Z,11.68
2022-11-27T13:05:09.268Z,9.18
2022-11-27T13:07:42.582Z,9.55
2022-11-27T13:10:16.184Z,9.85
2022-11-27T13:12:45.866Z,9.20
2022-11-27T13:15:21.998Z,9.45
2022-11-27T13:17:53.993Z,10.15
2022-11-27T13:20:25.889Z,9.45
2022-11-27T13:22:55.274Z,9.55
2022-11-27T13:25:23.589Z,9.47
2022-11-27T13:27:52.714Z,9.95
2022-11-27T13:30:23.177Z,10.02
2022-11-27T13:32:53.578Z,9.68
2022-11-27T13:35:26.657Z,9.18
2022-11-27T13:38:01.133Z,8.90
2022-11-27T13:40:31.074Z,10.77
2022-11-27T13:43:04.972Z,10.52
2022-11-27T13:45:35.093Z,10.82
2022-11-27T13:48:15.834Z,9.93
2022-11-27T13:50:45.616Z,9.93
2022-11-27T13:53:14.923Z,9.85
2022-11-27T13:55:53.839Z,9.30
2022-11-27T13:58:29.956Z,10.80
2022-11-27T14:00:58.580Z,9.32
2022-11-27T14:03:28.503Z,9.70
2022-11-27T14:05:57.077Z,9.90
2022-11-27T14:08:27.636Z,9.85
2022-11-27T14:10:59.180Z,9.93
2022-11-27T14:13:46.314Z,9.73
2022-11-27T14:16:23.733Z,10.10
2022-11-27T14:18:53.091Z,10.07
2022-11-27T14:21:26.986Z,24.75
2022-11-27T14:23:56.288Z,49.70
2022-11-27T14:26:25.980Z,57.20
2022-11-27T14:28:56.848Z,15.00
2022-11-27T14:31:28.775Z,10.85
2022-11-27T14:34:15.220Z,10.80
2022-11-27T14:36:45.285Z,9.98
2022-11-27T14:39:23.544Z,10.50
2022-11-27T14:41:58.905Z,9.23
2022-11-27T14:44:27.173Z,16.27
2022-11-27T14:46:57.017Z,21.10
2022-11-27T14:49:27.827Z,15.57
2022-11-27T14:52:04.204Z,15.55
2022-11-27T14:54:36.375Z,11.93
2022-11-27T14:57:05.436Z,15.57
2022-11-27T14:59:33.445Z,13.52
2022-11-27T15:02:04.009Z,11.02
2022-11-27T15:04:35.686Z,8.68
2022-11-27T15:07:06.646Z,9.27
2022-11-27T15:09:37.099Z,9.93
2022-11-27T15:12:13.498Z,9.52
2022-11-27T15:14:46.480Z,8.10
2022-11-27T15:17:17.269Z,8.82
2022-11-27T15:19:45.213Z,8.90
2022-11-27T15:22:18.146Z,9.10
2022-11-27T15:24:48.156Z,9.20
2022-11-27T15:27:22.699Z,10.82
2022-11-27T15:30:12.654Z,9.48
2022-11-27T15:32:51.469Z,8.13
2022-11-27T15:35:28.304Z,8.75
2022-11-27T15:37:58.150Z,9.32
2022-11-27T15:40:33.292Z,9.80
2022-11-27T15:43:01.702Z,10.38
2022-11-27T15:45:31.499Z,9.17
2022-11-27T15:48:01.276Z,9.60
2022-11-27T15:50:29.999Z,10.20
2022-11-27T15:53:00.786Z,10.25
2022-11-27T15:55:30.661Z,9.98
2022-11-27T15:57:58.795Z,9.67
2022-11-27T16:00:27.047Z,9.48
2022-11-27T16:02:55.492Z,8.68
2022-11-27T16:05:23.561Z,9.45
2022-11-27T16:07:55.221Z,9.48
2022-11-27T16:10:23.634Z,9.70
2022-11-27T16:12:55.138Z,9.38
2022-11-27T16:15:25.795Z,9.25
2022-11-27T16:17:56.940Z,8.75
2022-11-27T16:20:27.413Z,10.00
2022-11-27T16:22:55.629Z,10.70
2022-11-27T16:25:25.106Z,9.48
2022-11-27T16:27:59.408Z,10.23
2022-11-27T16:30:30.349Z,9.77
2022-11-27T16:32:58.485Z,10.63
2022-11-27T16:35:26.883Z,10.13
2022-11-27T16:37:55.319Z,9.82
2022-11-27T16:40:23.946Z,9.70
2022-11-27T16:42:56.239Z,11.00
2022-11-27T16:45:24.487Z,9.82
2022-11-27T16:47:54.786Z,10.37
2022-11-27T16:50:25.609Z,10.10
2022-11-27T16:52:55.377Z,9.13
2022-11-27T16:55:25.532Z,11.27
2022-11-27T16:57:55.640Z,9.43
2022-11-27T17:00:23.752Z,9.93
2022-11-27T17:02:52.200Z,8.77
2022-11-27T17:05:20.101Z,10.13
2022-11-27T17:07:48.597Z,9.05
2022-11-27T17:10:17.068Z,9.70
2022-11-27T17:12:46.729Z,9.83
2022-11-27T17:15:16.153Z,9.38
2022-11-27T17:17:44.798Z,9.30
2022-11-27T17:20:12.849Z,10.60
2022-11-27T17:22:41.387Z,11.10
2022-11-27T17:25:11.155Z,10.43
2022-11-27T17:27:39.939Z,10.98
2022-11-27T17:30:09.999Z,10.63
2022-11-27T17:32:39.873Z,11.05
2022-11-27T17:35:08.529Z,10.13
2022-11-27T17:37:37.271Z,9.70
2022-11-27T17:40:06.246Z,9.70
2022-11-27T17:43:04.389Z,9.88
2022-11-27T17:45:47.544Z,9.38
2022-11-27T17:48:46.147Z,8.85
2022-11-27T17:51:14.718Z,9.03
2022-11-27T17:53:43.972Z,9.95
2022-11-27T18:00:16.762Z,11.73
2022-11-27T18:02:44.761Z,11.43
2022-11-27T18:05:15.200Z,12.00
2022-11-27T18:07:44.257Z,11.13
2022-11-27T18:10:12.763Z,10.75
2022-11-27T18:12:40.865Z,11.30
2022-11-27T18:15:10.497Z,11.85
2022-11-27T18:17:38.869Z,11.63
2022-11-27T18:20:08.161Z,11.70
2022-11-27T18:22:37.475Z,11.95
2022-11-27T18:25:06.711Z,11.30
2022-11-27T18:27:34.744Z,10.45
2022-11-27T18:30:04.488Z,10.70
2022-11-27T18:32:32.646Z,10.40
2022-11-27T18:35:00.788Z,10.32
2022-11-27T18:37:28.773Z,10.10
2022-11-27T18:39:58.377Z,10.63
2022-11-27T18:42:26.718Z,10.33
2022-11-27T18:44:55.146Z,9.43
2022-11-27T18:47:23.320Z,10.13
2022-11-27T18:49:54.409Z,9.38
2022-11-27T18:52:22.499Z,9.95
2022-11-27T18:54:50.929Z,10.80
2022-11-27T18:57:20.427Z,11.88
2022-11-27T18:59:49.996Z,11.13
2022-11-27T19:02:18.918Z,11.52
2022-11-27T19:04:47.332Z,12.40
2022-11-27T19:07:15.395Z,12.60
2022-11-27T19:09:44.109Z,12.40
2022-11-27T19:12:13.791Z,11.43
2022-11-27T19:14:43.761Z,11.10
2022-11-27T19:17:12.075Z,12.13
2022-11-27T19:19:56.170Z,12.00
2022-11-27T19:22:25.796Z,12.48
2022-11-27T19:24:56.814Z,11.75
2022-11-27T19:27:24.774Z,11.70
2022-11-27T19:29:54.473Z,11.85
2022-11-27T19:32:22.451Z,12.43
2022-11-27T19:34:51.383Z,12.57
2022-11-27T19:37:33.586Z,13.98
2022-11-27T19:40:03.839Z,12.40
2022-11-27T19:42:32.212Z,12.07
2022-11-27T19:45:01.753Z,12.20
2022-11-27T19:47:29.839Z,15.85
2022-11-27T19:49:58.066Z,12.98
2022-11-27T19:52:26.108Z,12.25
2022-11-27T19:54:54.356Z,12.57
2022-11-27T19:57:22.855Z,13.30
2022-11-27T19:59:51.085Z,13.35
2022-11-27T20:02:20.735Z,12.73
2022-11-27T20:04:49.130Z,13.63
2022-11-27T20:07:17.154Z,14.10
2022-11-27T20:09:45.503Z,14.57
2022-11-27T20:12:14.026Z,13.40
2022-11-27T20:14:42.583Z,13.10
2022-11-27T20:17:10.791Z,12.43
2022-11-27T20:19:40.777Z,12.85
2022-11-27T20:22:10.132Z,13.43
2022-11-27T20:24:52.981Z,12.05
2022-11-27T20:27:27.308Z,11.40
2022-11-27T20:29:55.988Z,12.60
2022-11-27T20:32:27.708Z,11.80
2022-11-27T20:34:57.308Z,11.10
2022-11-27T20:37:25.432Z,11.25
2022-11-27T20:39:55.444Z,10.88
2022-11-27T20:42:24.374Z,10.85
2022-11-27T20:44:52.529Z,10.60
2022-11-27T20:47:20.665Z,9.67
2022-11-27T20:49:48.881Z,9.88
2022-11-27T20:52:18.888Z,10.20
2022-11-27T20:54:47.421Z,10.27
2022-11-27T20:57:15.603Z,11.15
2022-11-27T20:59:44.454Z,11.73
2022-11-27T21:02:13.143Z,10.88
2022-11-27T21:04:41.433Z,13.05
2022-11-27T21:07:10.478Z,12.02
2022-11-27T21:09:40.838Z,12.43
2022-11-27T21:12:10.377Z,11.40
2022-11-27T21:14:38.528Z,12.70
2022-11-27T21:17:07.026Z,12.57
2022-11-27T21:19:35.848Z,13.85
2022-11-27T21:22:04.381Z,12.05
2022-11-27T21:24:32.573Z,12.10
2022-11-27T21:27:01.976Z,11.95
2022-11-27T21:29:30.728Z,12.27
2022-11-27T21:31:59.277Z,12.48
2022-11-27T21:34:27.448Z,12.65
2022-11-27T21:36:56.147Z,12.60
2022-11-27T21:39:25.562Z,12.48
2022-11-27T21:41:55.492Z,12.93
2022-11-27T21:44:25.872Z,11.68
2022-11-27T21:46:54.184Z,11.73
2022-11-27T21:49:22.687Z,12.17
2022-11-27T21:51:52.648Z,12.60
2022-11-27T21:54:21.261Z,13.10
2022-11-27T21:56:51.701Z,11.77
2022-11-27T21:59:19.941Z,9.65
2022-11-27T22:01:50.305Z,9.07
2022-11-27T22:04:18.712Z,7.85
2022-11-27T22:06:47.056Z,5.72
2022-11-27T22:09:16.218Z,5.03
2022-11-27T22:11:45.235Z,5.30
2022-11-27T22:14:14.822Z,5.50
2022-11-27T22:16:45.892Z,4.82
2022-11-27T22:19:16.795Z,4.60
2022-11-27T22:21:45.121Z,4.30
2022-11-27T22:24:19.018Z,4.60
2022-11-27T22:26:49.536Z,4.23
2022-11-27T22:29:18.525Z,4.72
2022-11-27T22:31:46.444Z,4.43
2022-11-27T22:34:18.031Z,5.78
2022-11-27T22:36:47.151Z,6.35
2022-11-27T22:39:15.760Z,5.80
2022-11-27T22:41:45.005Z,5.30
2022-11-27T22:44:16.497Z,4.93
2022-11-27T22:46:44.901Z,3.78
2022-11-27T22:49:17.883Z,3.92
2022-11-27T22:51:47.499Z,3.50
2022-11-27T22:54:17.806Z,4.43
2022-11-27T22:56:46.837Z,3.70
2022-11-27T22:59:33.267Z,3.88
2022-11-27T23:02:03.000Z,3.78
2022-11-27T23:04:31.578Z,3.70
2022-11-27T23:07:01.127Z,4.85
2022-11-27T23:09:30.734Z,5.50
2022-11-27T23:11:59.151Z,5.97
2022-11-27T23:14:27.758Z,6.38
2022-11-27T23:16:55.998Z,7.30
2022-11-27T23:19:24.198Z,7.57
2022-11-27T23:21:52.113Z,7.93
2022-11-27T23:24:21.655Z,7.80
2022-11-27T23:26:49.585Z,7.18
2022-11-27T23:29:17.756Z,7.73
2022-11-27T23:31:45.762Z,8.10
2022-11-27T23:34:15.906Z,8.15
2022-11-27T23:36:43.954Z,9.20
2022-11-27T23:39:13.421Z,8.63
2022-11-27T23:41:43.431Z,9.10
2022-11-27T23:44:11.507Z,8.38
2022-11-27T23:46:39.719Z,10.18
2022-11-27T23:49:07.643Z,9.57
2022-11-27T23:51:36.026Z,9.65
2022-11-27T23:54:07.576Z,9.47
2022-11-27T23:56:36.307Z,9.98
2022-11-27T23:59:05.769Z,9.82
